M I D A S
Marine Information and Data Acquisition System
Tripno 780 of the Zeeleeuw from 2004-08-18 07:47:36 to 2004-08-18 11:48:37
Back to CruiseResearch ActivitiesStationsMapUnderway DataData graphs

EquipmentUnitsComment
TimeDGPSUTC
LatitudeDGPSDM.mWGS84
LongitudeDGPSDM.mWGS84
TemperatureSBE03/SBE38deg celciusITS90
ConductivitySBE21S/mITS90
SalinitySBE21 Practical Salinity Units
ChlorophylAChelsea fluorimeterg/lCalibrated in Aceton
Missing or incorrect values are displayed as -999
Sea surface data collected by the RV Zeeleeuw from 2004-08-18 07:47:36 to 2004-08-18 11:48:37
Time Latitude Longitude Temperature Conductivity Salinity ChlorophylA
2004-08-18 07:48:39 51°13.595 2°56.114 24.012269 0.073251 0.362128 -0.71383
2004-08-18 07:49:40 51°13.603 2°56.092 24.015674 0.073251 0.362158 -0.74754
2004-08-18 07:50:39 51°13.622 2°56.027 24.027263 0.073147 0.361644 -0.74754
2004-08-18 07:51:40 51°13.634 2°56.003 24.027722 0.073147 0.3617 -0.74754
2004-08-18 07:52:40 51°13.668 2°55.911 24.034645 0.073147 0.361715 -0.74754
2004-08-18 07:53:40 51°13.694 2°55.813 24.039922 0.073147 0.36173 -0.74754
2004-08-18 07:54:39 51°13.693 2°55.739 24.047875 0.073147 0.36174 -0.781249
2004-08-18 07:55:39 51°13.728 2°55.725 24.051049 0.073147 0.361781 -0.71383
2004-08-18 07:56:39 51°13.816 2°55.641 24.054146 0.073147 0.361796 -0.74754
2004-08-18 07:57:39 51°13.946 2°55.547 24.064735 0.073147 0.361826 -0.781249
2004-08-18 07:58:39 51°14.084 2°55.449 24.076929 0.073147 0.361852 -0.74754
2004-08-18 07:59:39 51°14.231 2°55.318 24.087859 0.073147 0.361877 -0.74754
2004-08-18 08:00:39 51°14.352 2°55.106 24.088776 0.073147 0.361892 -0.74754
2004-08-18 08:01:39 51°14.455 2°54.812 24.097565 0.072835 0.359965 -0.74754
2004-08-18 08:02:39 51°14.498 2°54.454 24.046461 0.072835 0.359915 -0.71383
2004-08-18 08:03:39 51°14.437 2°54.108 21.528917 0.878861 4.97039 0.499708
2004-08-18 08:04:39 51°14.317 2°53.794 20.756054 4.610515 32.583454 0.634546
2004-08-18 08:05:39 51°14.194 2°53.476 20.674218 4.660629 33.194445 0.533418
2004-08-18 08:06:39 51°14.07 2°53.154 20.637014 4.679515 33.402449 0.499708
2004-08-18 08:07:39 51°13.945 2°52.83 20.600232 4.682891 33.470003 0.465999
2004-08-18 08:08:39 51°13.818 2°52.508 20.581292 4.697451 33.609215 0.499708
2004-08-18 08:09:39 51°13.695 2°52.182 20.562106 4.706208 33.696577 0.465999
2004-08-18 08:10:39 51°13.567 2°51.86 20.550463 4.714754 33.78347 0.465999
2004-08-18 08:11:39 51°13.44 2°51.535 20.53926 4.723194 33.862396 0.465999
2004-08-18 08:12:37 51°13.32 2°51.221 20.524803 4.734905 33.966582 0.465999
2004-08-18 08:13:39 51°13.193 2°50.883 20.500418 4.737754 34.002357 0.533418
2004-08-18 08:14:39 51°13.078 2°50.55 20.484707 4.742819 34.058804 0.432289
2004-08-18 08:15:39 51°12.96 2°50.219 20.470881 4.744296 34.086414 0.499708
2004-08-18 08:16:39 51°12.843 2°49.887 20.456248 4.746512 34.115505 0.465999
2004-08-18 08:17:39 51°12.725 2°49.553 20.444025 4.749044 34.146044 0.432289
2004-08-18 08:18:39 51°12.609 2°49.22 20.438838 4.755375 34.201599 0.465999
2004-08-18 08:19:39 51°12.495 2°48.885 20.43924 4.756219 34.21405 0.465999
2004-08-18 08:20:39 51°12.378 2°48.553 20.439602 4.756535 34.219425 0.465999
2004-08-18 08:21:39 51°12.262 2°48.222 20.441613 4.757063 34.222552 0.465999
2004-08-18 08:22:39 51°12.145 2°47.89 20.4431 4.757274 34.221432 0.39858
2004-08-18 08:23:37 51°12.033 2°47.566 20.447282 4.758012 34.224567 0.39858
2004-08-18 08:24:39 51°11.916 2°47.217 20.447604 4.757274 34.219174 0.39858
2004-08-18 08:25:39 51°11.802 2°46.883 20.450941 4.756324 34.210386 0.364871
2004-08-18 08:26:39 51°11.679 2°46.558 20.452027 4.756641 34.20899 0.331161
2004-08-18 08:27:39 51°11.556 2°46.237 20.450057 4.755902 34.203033 0.331161
2004-08-18 08:28:39 51°11.46 2°45.89 20.444628 4.753898 34.191942 0.263742
2004-08-18 08:29:39 51°11.361 2°45.545 20.445955 4.753898 34.191942 0.263742
2004-08-18 08:30:39 51°11.264 2°45.2 20.437873 4.752421 34.185104 0.230033
2004-08-18 08:31:39 51°11.168 2°44.853 20.429025 4.750522 34.17486 0.263742
2004-08-18 08:32:39 51°11.072 2°44.507 20.429508 4.747673 34.156954 0.297452
2004-08-18 08:33:39 51°10.974 2°44.16 20.428221 4.746302 34.143636 0.297452
2004-08-18 08:34:39 51°10.878 2°43.813 20.434374 4.745457 34.136264 0.263742
2004-08-18 08:35:39 51°10.785 2°43.464 20.436948 4.746512 34.141394 0.297452
2004-08-18 08:36:39 51°10.689 2°43.116 20.438918 4.746723 34.140843 0.263742
2004-08-18 08:37:39 51°10.59 2°42.771 20.437551 4.747989 34.15049 0.263742
2004-08-18 08:38:39 51°10.501 2°42.421 20.429789 4.747779 34.151606 0.297452
2004-08-18 08:39:39 51°10.408 2°42.075 20.426974 4.747251 34.152422 0.263742
2004-08-18 08:40:39 51°10.309 2°41.731 20.422952 4.746302 34.14758 0.230033
2004-08-18 08:41:39 51°10.221 2°41.379 20.413137 4.745141 34.142725 0.196324
2004-08-18 08:42:37 51°10.127 2°41.044 20.405453 4.744825 34.145808 0.196324
2004-08-18 08:43:39 51°10.051 2°40.674 20.397084 4.743242 34.141493 0.263742
2004-08-18 08:44:39 51°10.027 2°40.299 20.391209 4.738495 34.111064 0.331161
2004-08-18 08:45:39 51°9.945 2°39.943 20.392255 4.736068 34.092606 0.297452
2004-08-18 08:46:39 51°9.848 2°39.597 20.392215 4.73533 34.085519 0.364871
2004-08-18 08:47:39 51°9.751 2°39.249 20.400906 4.732586 34.060007 0.297452
2004-08-18 08:48:39 51°9.657 2°38.902 20.385656 4.729527 34.037008 0.331161
2004-08-18 08:49:37 51°9.564 2°38.565 20.372696 4.72594 34.018743 0.297452
2004-08-18 08:50:39 51°9.469 2°38.202 20.359291 4.727523 34.039951 0.39858
2004-08-18 08:51:39 51°9.373 2°37.854 20.33344 4.73016 34.073633 0.364871
2004-08-18 08:52:39 51°9.293 2°37.5 20.28844 4.730583 34.106934 0.600836
2004-08-18 08:53:39 51°9.232 2°37.248 20.252887 4.730478 34.140558 0.769383
2004-08-18 08:54:39 51°9.149 2°37.237 20.247806 4.728052 34.141294 0.904221
2004-08-18 08:55:39 51°9.135 2°37.303 20.240064 4.724887 34.117369 0.769383
2004-08-18 08:56:39 51°9.135 2°37.3 20.23591 4.722249 34.100542 0.735674
2004-08-18 08:57:39 51°9.136 2°37.299 20.233006 4.7213 34.095117 0.701965
2004-08-18 08:58:39 51°9.136 2°37.289 20.227682 4.721194 34.098223 0.93793
2004-08-18 08:59:39 51°9.137 2°37.272 20.224697 4.720984 34.099343 0.93793
2004-08-18 09:00:39 51°9.136 2°37.262 20.223891 4.721406 34.104458 0.870512
2004-08-18 09:01:39 51°9.133 2°37.26 20.228045 4.721617 34.107865 0.803093
2004-08-18 09:02:39 51°9.132 2°37.264 20.233853 4.722777 34.112735 0.735674
2004-08-18 09:03:39 51°9.129 2°37.268 20.232562 4.724465 34.120177 0.93793
2004-08-18 09:04:41 51°9.124 2°37.269 20.235305 4.725098 34.127001 0.701965
2004-08-18 09:05:41 51°9.12 2°37.268 20.238168 4.725731 34.130995 0.769383
2004-08-18 09:07:11 51°9.112 2°37.263 20.241757 4.72647 34.133011 0.735674
2004-08-18 09:08:11 51°9.107 2°37.259 20.245225 4.726997 34.135017 0.803093
2004-08-18 09:09:10 51°9.101 2°37.253 20.248653 4.727946 34.139308 0.701965
2004-08-18 09:10:12 51°9.095 2°37.25 20.251596 4.728157 34.138185 0.870512
2004-08-18 09:11:12 51°9.09 2°37.249 20.258289 4.72879 34.139913 0.634546
2004-08-18 09:12:25 51°9.084 2°37.25 20.264659 4.729634 34.140518 0.701965
2004-08-18 09:13:25 51°9.081 2°37.251 20.269093 4.730056 34.14167 0.870512
2004-08-18 09:14:26 51°9.078 2°37.253 20.272116 4.730478 34.141124 0.836802
2004-08-18 09:15:24 51°9.075 2°37.256 20.276107 4.730795 34.140856 0.904221
2004-08-18 09:16:24 51°9.072 2°37.259 20.277598 4.731111 34.141153 0.97164
2004-08-18 09:17:27 51°9.069 2°37.263 20.281064 4.7309 34.138315 0.904221
2004-08-18 09:18:25 51°9.068 2°37.268 20.286747 4.731111 34.136063 0.97164
2004-08-18 09:19:25 51°9.068 2°37.273 20.286828 4.731322 34.134376 0.93793
2004-08-18 09:20:27 51°9.066 2°37.279 20.293356 4.731111 34.130408 1.005349
2004-08-18 09:21:25 51°9.063 2°37.286 20.293759 4.731322 34.127592 1.005349
2004-08-18 09:22:25 51°9.045 2°37.308 20.298232 4.731216 34.125044 1.039059
2004-08-18 09:23:27 51°8.997 2°37.309 20.303188 4.7309 34.119094 1.072768
2004-08-18 09:24:27 51°8.958 2°37.218 20.30492 4.730794 34.113157 1.039059
2004-08-18 09:25:27 51°8.993 2°37.12 20.290011 4.730583 34.11823 1.039059
2004-08-18 09:26:27 51°9.062 2°37.129 20.288117 4.730267 34.124147 1.106477
2004-08-18 09:27:27 51°9.116 2°37.172 20.295331 4.730478 34.126984 0.904221
2004-08-18 09:28:26 51°9.153 2°37.22 20.305686 4.730056 34.115094 1.005349
2004-08-18 09:29:33 51°9.178 2°37.283 20.326996 4.731111 34.10894 0.93793
2004-08-18 09:30:33 51°9.197 2°37.343 20.337105 4.731532 34.099371 0.803093
2004-08-18 09:31:33 51°9.215 2°37.402 20.349467 4.731427 34.089495 0.904221
2004-08-18 09:32:33 51°9.233 2°37.461 20.355949 4.731215 34.080463 0.803093
2004-08-18 09:33:32 51°9.254 2°37.52 20.364524 4.730266 34.067726 0.803093
2004-08-18 09:34:34 51°9.267 2°37.582 20.368107 4.73016 34.061806 0.769383
2004-08-18 09:35:33 51°9.277 2°37.642 20.371206 4.729211 34.051327 0.97164
2004-08-18 09:36:33 51°9.289 2°37.702 20.376721 4.728789 34.043419 0.97164
2004-08-18 09:37:33 51°9.3 2°37.764 20.380182 4.728789 34.041732 0.904221
2004-08-18 09:38:32 51°9.31 2°37.826 20.384529 4.728577 34.034968 0.803093
2004-08-18 09:39:33 51°9.318 2°37.889 20.389076 4.728683 34.031884 0.836802
2004-08-18 09:40:34 51°9.331 2°37.95 20.394187 4.728683 34.028512 0.600836
2004-08-18 09:41:32 51°9.348 2°38.006 20.400061 4.729316 34.029123 0.600836
2004-08-18 09:42:33 51°9.372 2°38.06 20.407907 4.73016 34.031436 0.600836
2004-08-18 09:43:33 51°9.393 2°38.115 20.414263 4.731848 34.038309 0.870512
2004-08-18 09:44:33 51°9.404 2°38.176 20.41724 4.733114 34.044586 0.668255
2004-08-18 09:45:33 51°9.412 2°38.239 20.4209 4.734169 34.049722 0.701965
2004-08-18 09:46:33 51°9.423 2°38.303 20.422791 4.735118 34.056817 0.769383
2004-08-18 09:47:33 51°9.439 2°38.363 20.423274 4.735646 34.058261 0.803093
2004-08-18 09:48:33 51°9.457 2°38.422 20.426692 4.736384 34.063654 0.870512
2004-08-18 09:49:33 51°9.474 2°38.481 20.423314 4.737123 34.069047 0.634546
2004-08-18 09:50:33 51°9.495 2°38.54 20.423877 4.73765 34.074425 0.735674
2004-08-18 09:51:32 51°9.517 2°38.598 20.425325 4.738811 34.083783 0.769383
2004-08-18 09:52:33 51°9.535 2°38.662 20.423314 4.739549 34.087489 0.668255
2004-08-18 09:53:34 51°9.549 2°38.728 20.425687 4.740393 34.096546 0.701965
2004-08-18 09:54:33 51°9.559 2°38.792 20.427577 4.741448 34.103366 0.701965
2004-08-18 09:55:33 51°9.568 2°38.858 20.430795 4.74282 34.110488 0.803093
2004-08-18 09:56:34 51°9.574 2°38.927 20.430714 4.743453 34.112779 0.701965
2004-08-18 09:57:33 51°9.585 2°38.992 20.432685 4.744613 34.123826 0.701965
2004-08-18 09:58:33 51°9.6 2°39.057 20.436345 4.745141 34.125265 0.803093
2004-08-18 09:59:35 51°9.618 2°39.122 20.441894 4.746512 34.13351 0.904221
2004-08-18 10:00:36 51°9.638 2°39.185 20.439924 4.747145 34.137489 0.567127
2004-08-18 10:01:33 51°9.655 2°39.244 20.442216 4.747989 34.143168 0.870512
2004-08-18 10:02:34 51°9.664 2°39.309 20.441371 4.748306 34.145721 0.93793
2004-08-18 10:03:35 51°9.666 2°39.374 20.447524 4.749361 34.152538 0.836802
2004-08-18 10:04:35 51°9.661 2°39.42 20.448609 4.749677 34.152274 0.668255
2004-08-18 10:05:36 51°9.654 2°39.45 20.450941 4.750416 34.155976 0.499708
2004-08-18 10:06:36 51°9.648 2°39.479 20.452791 4.750732 34.156275 0.432289
2004-08-18 10:07:35 51°9.658 2°39.532 20.456208 4.750943 34.15685 0.39858
2004-08-18 10:08:36 51°9.696 2°39.578 20.465615 4.751365 34.157437 0.499708
2004-08-18 10:09:34 51°9.735 2°39.628 20.461073 4.751893 34.156059 0.499708
2004-08-18 10:10:36 51°9.773 2°39.683 20.459264 4.752104 34.158323 0.432289
2004-08-18 10:11:36 51°9.805 2°39.73 20.456811 4.752315 34.163402 0.465999
2004-08-18 10:12:36 51°9.832 2°39.774 20.460068 4.75242 34.164252 0.499708
2004-08-18 10:13:35 51°9.853 2°39.818 20.457655 4.753053 34.168229 0.567127
2004-08-18 10:14:36 51°9.875 2°39.867 20.457816 4.753264 34.17162 0.634546
2004-08-18 10:15:35 51°9.896 2°39.915 20.456289 4.753159 34.171332 0.465999
2004-08-18 10:16:33 51°9.918 2°39.962 20.458942 4.753475 34.174448 0.735674
2004-08-18 10:17:36 51°9.944 2°40.011 20.455444 4.753475 34.174448 0.701965
2004-08-18 10:18:36 51°9.97 2°40.056 20.456369 4.753686 34.175585 0.600836
2004-08-18 10:19:36 51°9.996 2°40.1 20.458701 4.754003 34.178137 1.005349
2004-08-18 10:20:35 51°10.022 2°40.145 20.457052 4.754108 34.177861 0.668255
2004-08-18 10:21:36 51°10.047 2°40.192 20.455525 4.754108 34.177861 0.904221
2004-08-18 10:22:36 51°10.073 2°40.239 20.456047 4.754319 34.180689 0.93793
2004-08-18 10:23:36 51°10.098 2°40.287 20.455283 4.754636 34.180987 0.904221
2004-08-18 10:24:36 51°10.124 2°40.334 20.45074 4.754636 34.184931 0.93793
2004-08-18 10:25:36 51°10.152 2°40.379 20.451866 4.75432 34.18407 0.93793
2004-08-18 10:26:36 51°10.179 2°40.423 20.451424 4.754531 34.186899 0.836802
2004-08-18 10:27:35 51°10.204 2°40.467 20.449735 4.755375 34.19314 1.005349
2004-08-18 10:28:36 51°10.23 2°40.512 20.451343 4.75548 34.1923 0.803093
2004-08-18 10:29:36 51°10.253 2°40.559 20.449815 4.755902 34.197958 1.106477
2004-08-18 10:30:36 51°10.273 2°40.609 20.450579 4.756324 34.200233 0.904221
2004-08-18 10:31:35 51°10.292 2°40.66 20.454158 4.756957 34.20421 0.97164
2004-08-18 10:32:35 51°10.314 2°40.708 20.451625 4.757801 34.210452 0.93793
2004-08-18 10:33:36 51°10.339 2°40.755 20.45078 4.757907 34.21243 0.904221
2004-08-18 10:34:34 51°10.362 2°40.8 20.446478 4.757696 34.213549 0.93793
2004-08-18 10:35:36 51°10.386 2°40.848 20.44684 4.757907 34.216379 0.93793
2004-08-18 10:36:35 51°10.41 2°40.895 20.444468 4.757696 34.215806 0.735674
2004-08-18 10:37:35 51°10.435 2°40.942 20.438315 4.756641 34.211246 0.870512
2004-08-18 10:38:35 51°10.462 2°40.988 20.428824 4.756113 34.21207 0.701965
2004-08-18 10:39:35 51°10.494 2°41.029 20.421584 4.755058 34.210331 0.870512
2004-08-18 10:40:35 51°10.528 2°41.068 20.416717 4.754425 34.209739 0.870512
2004-08-18 10:41:35 51°10.561 2°41.108 20.413217 4.754531 34.212284 0.904221
2004-08-18 10:42:35 51°10.595 2°41.148 20.403401 4.754215 34.215942 1.005349
2004-08-18 10:43:36 51°10.628 2°41.193 20.395836 4.75316 34.214204 1.207606
2004-08-18 10:44:35 51°10.661 2°41.235 20.392054 4.752843 34.215603 1.241315
2004-08-18 10:45:36 51°10.695 2°41.279 20.392497 4.752949 34.21702 1.173896
2004-08-18 10:46:36 51°10.727 2°41.323 20.386863 4.753476 34.224105 1.173896
2004-08-18 10:47:35 51°10.759 2°41.367 20.386179 4.753793 34.229487 1.241315
2004-08-18 10:48:35 51°10.789 2°41.417 20.385213 4.753687 34.232593 1.275024
2004-08-18 10:49:36 51°10.811 2°41.474 20.389921 4.754426 34.234033 1.275024
2004-08-18 10:50:36 51°10.829 2°41.534 20.394951 4.755375 34.237742 1.477281
2004-08-18 10:51:35 51°10.843 2°41.594 20.396521 4.755903 34.24087 1.275024
2004-08-18 10:52:35 51°10.849 2°41.645 20.397848 4.756641 34.244006 1.308734
2004-08-18 10:53:36 51°10.85 2°41.683 20.402355 4.756958 34.245996 1.140187
2004-08-18 10:54:36 51°10.85 2°41.721 20.405855 4.758118 34.250842 1.241315
2004-08-18 10:55:36 51°10.86 2°41.847 20.405211 4.757907 34.248573 1.376153
2004-08-18 10:56:36 51°10.89 2°42.042 20.406056 4.758013 34.248294 1.342443
2004-08-18 10:57:36 51°10.939 2°42.248 20.408792 4.758013 34.249425 1.173896
2004-08-18 10:58:36 51°10.987 2°42.457 20.405372 4.758751 34.255386 1.106477
2004-08-18 10:59:36 51°11.036 2°42.668 20.398452 4.759174 34.261056 1.106477
2004-08-18 11:00:37 51°11.086 2°42.881 20.394388 4.759596 34.267292 1.072768
2004-08-18 11:01:45 51°11.144 2°43.116 20.395635 4.759701 34.273237 1.005349
2004-08-18 11:02:54 51°11.196 2°43.358 20.398854 4.760545 34.277789 1.106477
2004-08-18 11:03:59 51°11.245 2°43.588 20.404447 4.761073 34.27752 1.039059
2004-08-18 11:04:59 51°11.29 2°43.8 20.408269 4.761917 34.27811 1.005349
2004-08-18 11:06:05 51°11.342 2°44.033 20.409878 4.76255 34.279825 1.173896
2004-08-18 11:07:02 51°11.386 2°44.236 20.405855 4.762866 34.284644 1.005349
2004-08-18 11:08:04 51°11.421 2°44.423 20.405131 4.762972 34.28776 1.072768
2004-08-18 11:09:09 51°11.42 2°44.529 20.401671 4.762972 34.288892 0.93793
2004-08-18 11:10:12 51°11.425 2°44.617 20.399297 4.762866 34.29087 0.97164
2004-08-18 11:11:16 51°11.471 2°44.855 20.400584 4.763077 34.289178 0.97164
2004-08-18 11:12:21 51°11.518 2°45.164 20.405372 4.763183 34.291162 0.93793
2004-08-18 11:13:20 51°11.564 2°45.444 20.420297 4.763816 34.291178 0.97164
2004-08-18 11:14:22 51°11.619 2°45.737 20.442899 4.765293 34.290651 0.769383
2004-08-18 11:15:29 51°11.692 2°46.049 20.478116 4.76698 34.275437 0.567127
2004-08-18 11:16:28 51°11.768 2°46.312 20.510342 4.767296 34.2571 0.769383
2004-08-18 11:17:36 51°11.869 2°46.605 20.545806 4.76603 34.217595 0.735674
2004-08-18 11:18:40 51°11.975 2°46.874 20.558894 4.76508 34.185768 0.803093
2004-08-18 11:19:40 51°12.069 2°47.13 20.592127 4.764235 34.167183 0.803093
2004-08-18 11:20:40 51°12.159 2°47.39 20.613471 4.766345 34.161704 0.769383
2004-08-18 11:21:40 51°12.247 2°47.654 20.634488 4.766345 34.139286 0.634546
2004-08-18 11:22:40 51°12.333 2°47.923 20.638538 4.765289 34.125774 0.668255
2004-08-18 11:23:45 51°12.425 2°48.213 20.636773 4.763285 34.105201 0.634546
2004-08-18 11:24:44 51°12.513 2°48.475 20.628472 4.76223 34.101763 0.904221
2004-08-18 11:25:46 51°12.603 2°48.75 20.625584 4.760542 34.092682 0.769383
2004-08-18 11:26:45 51°12.688 2°49.013 20.633044 4.757904 34.067589 0.769383
2004-08-18 11:27:46 51°12.775 2°49.287 20.62779 4.755161 34.045008 0.735674
2004-08-18 11:28:56 51°12.876 2°49.602 20.63946 4.753367 34.03061 0.735674
2004-08-18 11:29:57 51°12.964 2°49.876 20.646758 4.752734 34.016602 0.803093
2004-08-18 11:31:01 51°13.056 2°50.164 20.663315 4.748724 33.972735 0.701965
2004-08-18 11:32:01 51°13.143 2°50.436 20.660108 4.746931 33.952229 0.701965
2004-08-18 11:33:01 51°13.233 2°50.707 20.678867 4.743027 33.916483 0.634546
2004-08-18 11:34:03 51°13.323 2°50.988 20.695537 4.740073 33.881147 0.668255
2004-08-18 11:35:02 51°13.41 2°51.258 20.704352 4.73638 33.836602 0.769383
2004-08-18 11:36:02 51°13.495 2°51.535 20.725542 4.732687 33.795419 0.735674
2004-08-18 11:37:02 51°13.581 2°51.812 20.736395 4.731104 33.771152 0.803093
2004-08-18 11:38:01 51°13.667 2°52.088 20.706034 4.728888 33.756186 0.870512
2004-08-18 11:39:06 51°13.761 2°52.39 20.701908 4.729944 33.793917 0.769383
2004-08-18 11:40:12 51°13.863 2°52.697 20.761738 4.724668 33.714154 0.668255
2004-08-18 11:41:19 51°13.968 2°53.006 20.793355 4.721186 33.658253 0.735674
2004-08-18 11:42:20 51°14.068 2°53.284 20.806078 4.71686 33.602297 0.701965
2004-08-18 11:43:25 51°14.181 2°53.576 20.797916 4.717282 33.607311 0.803093
2004-08-18 11:44:28 51°14.306 2°53.84 20.756814 4.718443 33.614383 0.836802
2004-08-18 11:45:27 51°14.402 2°54.11 20.775828 4.716228 33.628522 0.870512
2004-08-18 11:46:27 51°14.446 2°54.418 20.796316 4.706521 33.532353 0.93793
2004-08-18 11:47:28 51°14.445 2°54.738 20.813399 4.7042 33.498514 0.803093
2004-08-18 11:48:26 51°14.389 2°55.014 20.814919 4.705782 33.506222 0.668255